sensor_id;sensor_type;location;lat;lon;timestamp;temperature;humidity
74661;SHT31;63191;39.566;2.654;2023-04-25T00:01:53;17.51;80.42
74661;SHT31;63191;39.566;2.654;2023-04-25T00:06:56;17.61;80.65
74661;SHT31;63191;39.566;2.654;2023-04-25T00:09:22;17.68;80.94
74661;SHT31;63191;39.566;2.654;2023-04-25T00:11:48;17.74;81.12
74661;SHT31;63191;39.566;2.654;2023-04-25T00:14:14;17.80;81.24
74661;SHT31;63191;39.566;2.654;2023-04-25T00:19:25;17.93;82.22
74661;SHT31;63191;39.566;2.654;2023-04-25T00:21:56;17.99;82.13
74661;SHT31;63191;39.566;2.654;2023-04-25T00:24:22;18.03;81.84
74661;SHT31;63191;39.566;2.654;2023-04-25T00:31:44;18.07;81.50
74661;SHT31;63191;39.566;2.654;2023-04-25T00:34:20;18.11;81.51
74661;SHT31;63191;39.566;2.654;2023-04-25T00:36:45;18.16;81.61
74661;SHT31;63191;39.566;2.654;2023-04-25T00:39:11;18.19;81.83
74661;SHT31;63191;39.566;2.654;2023-04-25T00:41:38;18.25;81.90
74661;SHT31;63191;39.566;2.654;2023-04-25T00:44:04;18.28;81.90
74661;SHT31;63191;39.566;2.654;2023-04-25T00:49:07;18.36;81.89
74661;SHT31;63191;39.566;2.654;2023-04-25T00:51:33;18.38;81.86
74661;SHT31;63191;39.566;2.654;2023-04-25T00:54:17;18.38;81.91
74661;SHT31;63191;39.566;2.654;2023-04-25T00:56:47;18.40;82.04
74661;SHT31;63191;39.566;2.654;2023-04-25T00:59:16;18.40;82.19
74661;SHT31;63191;39.566;2.654;2023-04-25T01:01:55;18.40;82.30
74661;SHT31;63191;39.566;2.654;2023-04-25T01:04:30;18.43;82.40
74661;SHT31;63191;39.566;2.654;2023-04-25T01:06:56;18.44;82.48
74661;SHT31;63191;39.566;2.654;2023-04-25T01:12:05;18.43;82.73
74661;SHT31;63191;39.566;2.654;2023-04-25T01:19:37;18.46;83.06
74661;SHT31;63191;39.566;2.654;2023-04-25T01:22:09;18.50;83.06
74661;SHT31;63191;39.566;2.654;2023-04-25T01:24:38;18.54;82.93
74661;SHT31;63191;39.566;2.654;2023-04-25T01:27:04;18.55;82.75
74661;SHT31;63191;39.566;2.654;2023-04-25T01:34:38;18.49;82.26
74661;SHT31;63191;39.566;2.654;2023-04-25T01:37:05;18.47;82.16
74661;SHT31;63191;39.566;2.654;2023-04-25T01:39:34;18.46;82.01
74661;SHT31;63191;39.566;2.654;2023-04-25T01:45:00;18.40;81.71
74661;SHT31;63191;39.566;2.654;2023-04-25T01:47:27;18.35;81.66
74661;SHT31;63191;39.566;2.654;2023-04-25T01:50:06;18.31;81.70
74661;SHT31;63191;39.566;2.654;2023-04-25T01:52:33;18.30;81.85
74661;SHT31;63191;39.566;2.654;2023-04-25T01:55:00;18.30;81.98
74661;SHT31;63191;39.566;2.654;2023-04-25T01:57:27;18.32;82.01
74661;SHT31;63191;39.566;2.654;2023-04-25T02:02:30;18.34;82.13
74661;SHT31;63191;39.566;2.654;2023-04-25T02:04:56;18.33;82.23
74661;SHT31;63191;39.566;2.654;2023-04-25T02:10:14;18.30;82.50
74661;SHT31;63191;39.566;2.654;2023-04-25T02:12:46;18.29;82.60
74661;SHT31;63191;39.566;2.654;2023-04-25T02:15:15;18.29;82.70
74661;SHT31;63191;39.566;2.654;2023-04-25T02:17:41;18.30;82.98
74661;SHT31;63191;39.566;2.654;2023-04-25T02:20:07;18.30;83.27
74661;SHT31;63191;39.566;2.654;2023-04-25T02:22:42;18.31;83.45
74661;SHT31;63191;39.566;2.654;2023-04-25T02:25:08;18.31;83.56
74661;SHT31;63191;39.566;2.654;2023-04-25T02:27:41;18.28;83.63
74661;SHT31;63191;39.566;2.654;2023-04-25T02:30:18;18.29;83.73
74661;SHT31;63191;39.566;2.654;2023-04-25T02:32:44;18.33;83.80
74661;SHT31;63191;39.566;2.654;2023-04-25T02:37:38;18.42;83.89
74661;SHT31;63191;39.566;2.654;2023-04-25T02:40:08;18.43;83.82
74661;SHT31;63191;39.566;2.654;2023-04-25T02:42:36;18.44;83.74
74661;SHT31;63191;39.566;2.654;2023-04-25T02:47:29;18.50;83.65
74661;SHT31;63191;39.566;2.654;2023-04-25T02:52:20;18.60;83.44
74661;SHT31;63191;39.566;2.654;2023-04-25T02:57:21;18.61;82.64
74661;SHT31;63191;39.566;2.654;2023-04-25T03:05:09;18.65;81.48
74661;SHT31;63191;39.566;2.654;2023-04-25T03:07:34;18.64;81.15
74661;SHT31;63191;39.566;2.654;2023-04-25T03:10:10;18.64;80.86
74661;SHT31;63191;39.566;2.654;2023-04-25T03:12:45;18.64;80.61
74661;SHT31;63191;39.566;2.654;2023-04-25T03:15:10;18.63;80.41
74661;SHT31;63191;39.566;2.654;2023-04-25T03:17:39;18.62;80.26
74661;SHT31;63191;39.566;2.654;2023-04-25T03:22:30;18.59;80.09
74661;SHT31;63191;39.566;2.654;2023-04-25T03:25:01;18.61;79.96
74661;SHT31;63191;39.566;2.654;2023-04-25T03:30:10;18.63;79.86
74661;SHT31;63191;39.566;2.654;2023-04-25T03:33:01;18.62;79.80
74661;SHT31;63191;39.566;2.654;2023-04-25T03:40:43;18.53;79.91
74661;SHT31;63191;39.566;2.654;2023-04-25T03:48:01;18.31;80.04
74661;SHT31;63191;39.566;2.654;2023-04-25T03:53:51;18.18;80.27
74661;SHT31;63191;39.566;2.654;2023-04-25T04:01:23;18.07;80.65
74661;SHT31;63191;39.566;2.654;2023-04-25T04:03:53;18.06;80.71
74661;SHT31;63191;39.566;2.654;2023-04-25T04:06:26;18.05;80.77
74661;SHT31;63191;39.566;2.654;2023-04-25T04:11:54;18.09;80.90
74661;SHT31;63191;39.566;2.654;2023-04-25T04:14:57;18.13;80.99
74661;SHT31;63191;39.566;2.654;2023-04-25T04:17:46;18.16;80.98
74661;SHT31;63191;39.566;2.654;2023-04-25T04:20:20;18.18;80.94
74661;SHT31;63191;39.566;2.654;2023-04-25T04:22:46;18.18;80.90
74661;SHT31;63191;39.566;2.654;2023-04-25T04:25:43;18.18;80.81
74661;SHT31;63191;39.566;2.654;2023-04-25T04:30:46;18.15;80.50
74661;SHT31;63191;39.566;2.654;2023-04-25T04:33:26;18.13;80.56
74661;SHT31;63191;39.566;2.654;2023-04-25T04:35:57;18.10;80.59
74661;SHT31;63191;39.566;2.654;2023-04-25T04:38:25;18.08;80.63
74661;SHT31;63191;39.566;2.654;2023-04-25T04:40:55;18.06;80.70
74661;SHT31;63191;39.566;2.654;2023-04-25T04:48:11;18.05;80.70
74661;SHT31;63191;39.566;2.654;2023-04-25T04:50:45;18.05;80.79
74661;SHT31;63191;39.566;2.654;2023-04-25T04:56:10;18.10;80.82
74661;SHT31;63191;39.566;2.654;2023-04-25T05:03:49;18.19;80.45
74661;SHT31;63191;39.566;2.654;2023-04-25T05:06:29;18.22;80.31
74661;SHT31;63191;39.566;2.654;2023-04-25T05:20:37;18.32;80.09
74661;SHT31;63191;39.566;2.654;2023-04-25T05:23:24;18.36;79.78
74661;SHT31;63191;39.566;2.654;2023-04-25T05:28:45;18.39;79.05
74661;SHT31;63191;39.566;2.654;2023-04-25T05:31:13;18.38;78.77
74661;SHT31;63191;39.566;2.654;2023-04-25T05:36:29;18.41;78.59
74661;SHT31;63191;39.566;2.654;2023-04-25T05:44:47;18.51;78.40
74661;SHT31;63191;39.566;2.654;2023-04-25T05:52:22;18.65;78.10
74661;SHT31;63191;39.566;2.654;2023-04-25T05:55:06;18.71;78.07
74661;SHT31;63191;39.566;2.654;2023-04-25T06:02:54;18.85;77.78
74661;SHT31;63191;39.566;2.654;2023-04-25T06:05:21;18.93;77.70
74661;SHT31;63191;39.566;2.654;2023-04-25T06:07:48;19.03;77.51
74661;SHT31;63191;39.566;2.654;2023-04-25T06:10:16;19.13;77.32
74661;SHT31;63191;39.566;2.654;2023-04-25T06:12:43;19.24;77.12
74661;SHT31;63191;39.566;2.654;2023-04-25T06:15:09;19.34;76.85
74661;SHT31;63191;39.566;2.654;2023-04-25T06:17:36;19.39;76.57
74661;SHT31;63191;39.566;2.654;2023-04-25T06:20:05;19.47;76.24
74661;SHT31;63191;39.566;2.654;2023-04-25T06:22:33;19.68;75.84
74661;SHT31;63191;39.566;2.654;2023-04-25T06:24:58;19.86;75.31
74661;SHT31;63191;39.566;2.654;2023-04-25T06:27:25;19.97;75.04
74661;SHT31;63191;39.566;2.654;2023-04-25T06:29:51;20.23;74.55
74661;SHT31;63191;39.566;2.654;2023-04-25T06:32:18;20.36;74.20
74661;SHT31;63191;39.566;2.654;2023-04-25T06:41:02;19.86;75.67
74661;SHT31;63191;39.566;2.654;2023-04-25T06:46:24;20.00;75.55
74661;SHT31;63191;39.566;2.654;2023-04-25T06:52:26;21.33;73.84
74661;SHT31;63191;39.566;2.654;2023-04-25T07:36:25;20.76;72.04
74661;SHT31;63191;39.566;2.654;2023-04-25T07:41:16;20.50;73.09
74661;SHT31;63191;39.566;2.654;2023-04-25T07:48:38;20.30;73.65
74661;SHT31;63191;39.566;2.654;2023-04-25T07:53:29;20.42;73.42
74661;SHT31;63191;39.566;2.654;2023-04-25T07:56:05;20.57;73.34
74661;SHT31;63191;39.566;2.654;2023-04-25T07:59:03;20.88;72.75
74661;SHT31;63191;39.566;2.654;2023-04-25T08:01:30;20.95;72.41
74661;SHT31;63191;39.566;2.654;2023-04-25T08:04:02;20.96;72.52
74661;SHT31;63191;39.566;2.654;2023-04-25T08:11:44;21.57;72.42
74661;SHT31;63191;39.566;2.654;2023-04-25T08:19:56;22.92;69.00
74661;SHT31;63191;39.566;2.654;2023-04-25T08:22:31;22.98;68.29
74661;SHT31;63191;39.566;2.654;2023-04-25T08:24:57;22.86;67.14
74661;SHT31;63191;39.566;2.654;2023-04-25T08:27:28;22.55;67.04
74661;SHT31;63191;39.566;2.654;2023-04-25T08:29:56;22.27;67.77
74661;SHT31;63191;39.566;2.654;2023-04-25T08:32:23;22.09;68.72
74661;SHT31;63191;39.566;2.654;2023-04-25T08:34:52;22.07;69.43
74661;SHT31;63191;39.566;2.654;2023-04-25T08:37:20;22.09;69.12
74661;SHT31;63191;39.566;2.654;2023-04-25T08:39:47;22.15;69.37
74661;SHT31;63191;39.566;2.654;2023-04-25T08:42:42;22.51;69.63
74661;SHT31;63191;39.566;2.654;2023-04-25T08:47:58;23.56;65.96
74661;SHT31;63191;39.566;2.654;2023-04-25T08:50:31;23.27;65.73
74661;SHT31;63191;39.566;2.654;2023-04-25T08:52:56;23.04;66.52
74661;SHT31;63191;39.566;2.654;2023-04-25T08:55:32;22.90;66.73
74661;SHT31;63191;39.566;2.654;2023-04-25T08:57:59;22.85;67.08
74661;SHT31;63191;39.566;2.654;2023-04-25T09:00:26;23.02;66.32
74661;SHT31;63191;39.566;2.654;2023-04-25T09:02:55;23.02;65.76
74661;SHT31;63191;39.566;2.654;2023-04-25T09:05:23;22.91;66.11
74661;SHT31;63191;39.566;2.654;2023-04-25T09:07:54;22.64;66.60
74661;SHT31;63191;39.566;2.654;2023-04-25T09:10:32;22.43;67.56
74661;SHT31;63191;39.566;2.654;2023-04-25T09:18:30;23.03;67.57
74661;SHT31;63191;39.566;2.654;2023-04-25T09:21:10;23.57;65.50
74661;SHT31;63191;39.566;2.654;2023-04-25T09:23:44;23.61;65.06
74661;SHT31;63191;39.566;2.654;2023-04-25T09:26:24;23.20;66.04
74661;SHT31;63191;39.566;2.654;2023-04-25T09:29:40;22.97;66.46
74661;SHT31;63191;39.566;2.654;2023-04-25T09:32:19;22.68;67.05
74661;SHT31;63191;39.566;2.654;2023-04-25T09:34:56;22.45;68.08
74661;SHT31;63191;39.566;2.654;2023-04-25T09:37:28;22.61;68.14
74661;SHT31;63191;39.566;2.654;2023-04-25T09:39:57;23.05;66.57
74661;SHT31;63191;39.566;2.654;2023-04-25T09:42:28;23.22;65.67
74661;SHT31;63191;39.566;2.654;2023-04-25T09:45:06;22.93;66.04
74661;SHT31;63191;39.566;2.654;2023-04-25T09:47:36;22.58;67.67
74661;SHT31;63191;39.566;2.654;2023-04-25T09:50:04;22.60;68.49
74661;SHT31;63191;39.566;2.654;2023-04-25T09:53:04;22.76;67.78
74661;SHT31;63191;39.566;2.654;2023-04-25T09:57:57;23.25;67.05
74661;SHT31;63191;39.566;2.654;2023-04-25T10:00:37;23.70;65.09
74661;SHT31;63191;39.566;2.654;2023-04-25T10:03:03;23.99;63.39
74661;SHT31;63191;39.566;2.654;2023-04-25T10:05:32;24.14;62.89
74661;SHT31;63191;39.566;2.654;2023-04-25T10:08:03;24.01;63.32
74661;SHT31;63191;39.566;2.654;2023-04-25T10:10:36;23.66;64.34
74661;SHT31;63191;39.566;2.654;2023-04-25T10:13:12;23.22;65.09
74661;SHT31;63191;39.566;2.654;2023-04-25T10:15:49;22.89;66.25
74661;SHT31;63191;39.566;2.654;2023-04-25T10:20:50;22.44;68.08
74661;SHT31;63191;39.566;2.654;2023-04-25T10:23:16;22.43;68.76
74661;SHT31;63191;39.566;2.654;2023-04-25T10:25:45;22.64;68.20
74661;SHT31;63191;39.566;2.654;2023-04-25T10:31:02;23.44;65.91
74661;SHT31;63191;39.566;2.654;2023-04-25T10:33:58;23.39;65.51
74661;SHT31;63191;39.566;2.654;2023-04-25T10:36:26;23.01;66.66
74661;SHT31;63191;39.566;2.654;2023-04-25T10:39:09;22.69;67.49
74661;SHT31;63191;39.566;2.654;2023-04-25T10:41:56;22.61;68.24
74661;SHT31;63191;39.566;2.654;2023-04-25T10:45:07;22.50;68.48
74661;SHT31;63191;39.566;2.654;2023-04-25T10:47:34;22.42;69.08
74661;SHT31;63191;39.566;2.654;2023-04-25T10:52:40;22.79;68.67
74661;SHT31;63191;39.566;2.654;2023-04-25T10:55:09;23.36;66.91
74661;SHT31;63191;39.566;2.654;2023-04-25T11:00:23;24.23;63.20
74661;SHT31;63191;39.566;2.654;2023-04-25T11:02:53;24.02;64.01
74661;SHT31;63191;39.566;2.654;2023-04-25T11:05:33;23.70;64.54
74661;SHT31;63191;39.566;2.654;2023-04-25T11:08:10;23.31;65.57
74661;SHT31;63191;39.566;2.654;2023-04-25T11:10:41;23.02;66.12
74661;SHT31;63191;39.566;2.654;2023-04-25T11:13:07;22.84;66.82
74661;SHT31;63191;39.566;2.654;2023-04-25T11:15:33;22.81;67.46
74661;SHT31;63191;39.566;2.654;2023-04-25T11:18:01;22.81;67.60
74661;SHT31;63191;39.566;2.654;2023-04-25T11:20:34;22.78;67.33
74661;SHT31;63191;39.566;2.654;2023-04-25T11:23:01;22.82;67.98
74661;SHT31;63191;39.566;2.654;2023-04-25T11:25:28;22.88;68.60
74661;SHT31;63191;39.566;2.654;2023-04-25T11:27:56;22.85;68.46
74661;SHT31;63191;39.566;2.654;2023-04-25T11:30:28;22.77;68.62
74661;SHT31;63191;39.566;2.654;2023-04-25T11:32:55;22.53;68.76
74661;SHT31;63191;39.566;2.654;2023-04-25T11:37:48;21.97;70.06
74661;SHT31;63191;39.566;2.654;2023-04-25T11:40:15;21.85;70.68
74661;SHT31;63191;39.566;2.654;2023-04-25T11:42:47;21.85;70.87
74661;SHT31;63191;39.566;2.654;2023-04-25T11:45:13;21.85;71.15
74661;SHT31;63191;39.566;2.654;2023-04-25T11:47:40;21.86;71.29
74661;SHT31;63191;39.566;2.654;2023-04-25T11:50:21;21.84;71.32
74661;SHT31;63191;39.566;2.654;2023-04-25T11:55:24;21.88;71.28
74661;SHT31;63191;39.566;2.654;2023-04-25T11:57:50;22.12;71.11
74661;SHT31;63191;39.566;2.654;2023-04-25T12:02:53;22.78;68.85
74661;SHT31;63191;39.566;2.654;2023-04-25T12:05:32;23.14;67.62
74661;SHT31;63191;39.566;2.654;2023-04-25T12:08:22;23.33;66.93
74661;SHT31;63191;39.566;2.654;2023-04-25T12:10:46;23.25;66.95
74661;SHT31;63191;39.566;2.654;2023-04-25T12:22:27;22.50;69.26
74661;SHT31;63191;39.566;2.654;2023-04-25T12:24:59;22.44;69.47
74661;SHT31;63191;39.566;2.654;2023-04-25T12:30:02;22.34;69.87
74661;SHT31;63191;39.566;2.654;2023-04-25T12:37:26;22.28;70.43
74661;SHT31;63191;39.566;2.654;2023-04-25T12:40:06;22.24;70.52
74661;SHT31;63191;39.566;2.654;2023-04-25T12:43:02;22.28;70.59
74661;SHT31;63191;39.566;2.654;2023-04-25T12:48:31;22.15;71.03
74661;SHT31;63191;39.566;2.654;2023-04-25T12:51:23;22.09;70.98
74661;SHT31;63191;39.566;2.654;2023-04-25T12:54:13;22.11;71.02
74661;SHT31;63191;39.566;2.654;2023-04-25T12:59:53;22.23;70.67
74661;SHT31;63191;39.566;2.654;2023-04-25T13:04:56;22.43;70.11
74661;SHT31;63191;39.566;2.654;2023-04-25T13:09:47;23.09;69.75
74661;SHT31;63191;39.566;2.654;2023-04-25T13:12:22;23.87;68.35
74661;SHT31;63191;39.566;2.654;2023-04-25T13:14:51;24.75;65.87
74661;SHT31;63191;39.566;2.654;2023-04-25T13:32:48;27.30;55.83
74661;SHT31;63191;39.566;2.654;2023-04-25T13:43:41;26.93;56.14
74661;SHT31;63191;39.566;2.654;2023-04-25T13:46:50;26.57;57.26
74661;SHT31;63191;39.566;2.654;2023-04-25T14:08:39;23.57;65.61
74661;SHT31;63191;39.566;2.654;2023-04-25T14:28:52;21.91;71.90
74661;SHT31;63191;39.566;2.654;2023-04-25T15:57:33;20.77;76.97
74661;SHT31;63191;39.566;2.654;2023-04-25T16:00:12;20.80;77.16
74661;SHT31;63191;39.566;2.654;2023-04-25T16:03:35;20.86;76.97
74661;SHT31;63191;39.566;2.654;2023-04-25T16:06:38;20.90;76.79
74661;SHT31;63191;39.566;2.654;2023-04-25T16:09:09;20.94;76.61
74661;SHT31;63191;39.566;2.654;2023-04-25T16:21:06;21.24;74.69
74661;SHT31;63191;39.566;2.654;2023-04-25T16:23:33;21.28;74.77
74661;SHT31;63191;39.566;2.654;2023-04-25T16:26:03;21.35;74.68
74661;SHT31;63191;39.566;2.654;2023-04-25T16:28:30;21.40;74.33
74661;SHT31;63191;39.566;2.654;2023-04-25T16:30:56;21.39;74.09
74661;SHT31;63191;39.566;2.654;2023-04-25T16:33:21;21.33;74.28
74661;SHT31;63191;39.566;2.654;2023-04-25T16:35:53;21.29;74.49
74661;SHT31;63191;39.566;2.654;2023-04-25T16:38:19;21.24;74.54
74661;SHT31;63191;39.566;2.654;2023-04-25T16:40:45;21.17;74.50
74661;SHT31;63191;39.566;2.654;2023-04-25T16:43:12;21.10;74.66
74661;SHT31;63191;39.566;2.654;2023-04-25T16:45:38;21.08;75.08
74661;SHT31;63191;39.566;2.654;2023-04-25T16:48:05;21.03;75.53
74661;SHT31;63191;39.566;2.654;2023-04-25T16:50:31;20.99;75.84
74661;SHT31;63191;39.566;2.654;2023-04-25T16:52:58;20.97;76.11
74661;SHT31;63191;39.566;2.654;2023-04-25T16:55:24;20.96;76.17
74661;SHT31;63191;39.566;2.654;2023-04-25T16:57:50;20.93;76.29
74661;SHT31;63191;39.566;2.654;2023-04-25T17:00:16;20.93;76.37
74661;SHT31;63191;39.566;2.654;2023-04-25T17:02:42;20.91;75.96
74661;SHT31;63191;39.566;2.654;2023-04-25T17:05:08;20.86;75.73
74661;SHT31;63191;39.566;2.654;2023-04-25T17:07:58;20.86;75.82
74661;SHT31;63191;39.566;2.654;2023-04-25T17:12:53;20.94;75.83
74661;SHT31;63191;39.566;2.654;2023-04-25T17:20:26;20.89;76.34
74661;SHT31;63191;39.566;2.654;2023-04-25T17:23:12;20.82;76.79
74661;SHT31;63191;39.566;2.654;2023-04-25T17:32:11;20.70;77.70
74661;SHT31;63191;39.566;2.654;2023-04-25T17:34:51;20.66;77.88
74661;SHT31;63191;39.566;2.654;2023-04-25T17:37:16;20.61;77.87
74661;SHT31;63191;39.566;2.654;2023-04-25T17:39:43;20.56;77.99
74661;SHT31;63191;39.566;2.654;2023-04-25T17:42:13;20.50;78.18
74661;SHT31;63191;39.566;2.654;2023-04-25T17:44:39;20.44;78.37
74661;SHT31;63191;39.566;2.654;2023-04-25T17:47:06;20.38;78.60
74661;SHT31;63191;39.566;2.654;2023-04-25T17:49:34;20.31;78.79
74661;SHT31;63191;39.566;2.654;2023-04-25T17:52:00;20.24;78.99
74661;SHT31;63191;39.566;2.654;2023-04-25T17:54:27;20.18;79.21
74661;SHT31;63191;39.566;2.654;2023-04-25T17:56:53;20.12;79.41
74661;SHT31;63191;39.566;2.654;2023-04-25T17:59:20;20.07;79.72
74661;SHT31;63191;39.566;2.654;2023-04-25T18:01:47;20.04;79.97
74661;SHT31;63191;39.566;2.654;2023-04-25T18:04:13;20.00;80.11
74661;SHT31;63191;39.566;2.654;2023-04-25T18:06:47;19.94;80.35
74661;SHT31;63191;39.566;2.654;2023-04-25T18:11:51;19.80;80.71
74661;SHT31;63191;39.566;2.654;2023-04-25T18:14:20;19.77;80.94
74661;SHT31;63191;39.566;2.654;2023-04-25T18:16:50;19.75;81.10
74661;SHT31;63191;39.566;2.654;2023-04-25T18:19:34;19.70;81.26
74661;SHT31;63191;39.566;2.654;2023-04-25T18:33:01;19.39;82.10
74661;SHT31;63191;39.566;2.654;2023-04-25T18:38:03;19.30;82.51
74661;SHT31;63191;39.566;2.654;2023-04-25T18:49:48;19.11;83.19
74661;SHT31;63191;39.566;2.654;2023-04-25T18:52:14;19.08;83.33
74661;SHT31;63191;39.566;2.654;2023-04-25T19:22:57;18.77;84.81
74661;SHT31;63191;39.566;2.654;2023-04-25T19:34:08;18.76;85.14
74661;SHT31;63191;39.566;2.654;2023-04-25T19:39:06;18.78;85.46
74661;SHT31;63191;39.566;2.654;2023-04-25T19:44:26;18.86;85.63
74661;SHT31;63191;39.566;2.654;2023-04-25T19:46:53;18.90;85.67
74661;SHT31;63191;39.566;2.654;2023-04-25T20:03:04;18.97;85.29
74661;SHT31;63191;39.566;2.654;2023-04-25T20:08:38;19.02;85.28
74661;SHT31;63191;39.566;2.654;2023-04-25T20:11:05;19.03;85.23
74661;SHT31;63191;39.566;2.654;2023-04-25T20:13:41;19.02;85.21
74661;SHT31;63191;39.566;2.654;2023-04-25T20:18:32;19.04;85.16
74661;SHT31;63191;39.566;2.654;2023-04-25T20:21:02;19.05;85.10
74661;SHT31;63191;39.566;2.654;2023-04-25T20:23:48;19.06;85.08
74661;SHT31;63191;39.566;2.654;2023-04-25T20:26:14;19.05;85.02
74661;SHT31;63191;39.566;2.654;2023-04-25T20:28:59;19.04;85.10
74661;SHT31;63191;39.566;2.654;2023-04-25T20:32:10;19.05;85.19
74661;SHT31;63191;39.566;2.654;2023-04-25T20:34:51;19.06;85.20
74661;SHT31;63191;39.566;2.654;2023-04-25T20:46:19;19.06;85.47
74661;SHT31;63191;39.566;2.654;2023-04-25T21:00:38;19.00;85.54
74661;SHT31;63191;39.566;2.654;2023-04-25T21:24:26;18.85;85.94
74661;SHT31;63191;39.566;2.654;2023-04-25T21:27:04;18.85;86.01
74661;SHT31;63191;39.566;2.654;2023-04-25T21:29:37;18.86;86.00
74661;SHT31;63191;39.566;2.654;2023-04-25T21:38:25;18.88;85.92
74661;SHT31;63191;39.566;2.654;2023-04-25T21:43:47;18.84;85.77
74661;SHT31;63191;39.566;2.654;2023-04-25T21:52:50;18.81;85.40
74661;SHT31;63191;39.566;2.654;2023-04-25T22:04:21;18.72;84.79
74661;SHT31;63191;39.566;2.654;2023-04-25T22:09:28;18.67;84.31
74661;SHT31;63191;39.566;2.654;2023-04-25T22:17:38;18.65;83.50
74661;SHT31;63191;39.566;2.654;2023-04-25T22:20:19;18.63;83.25
74661;SHT31;63191;39.566;2.654;2023-04-25T22:22:56;18.60;83.03
74661;SHT31;63191;39.566;2.654;2023-04-25T22:25:25;18.58;82.86
74661;SHT31;63191;39.566;2.654;2023-04-25T22:30:27;18.56;82.53
74661;SHT31;63191;39.566;2.654;2023-04-25T22:42:48;18.50;81.66
74661;SHT31;63191;39.566;2.654;2023-04-25T22:45:17;18.45;81.46
74661;SHT31;63191;39.566;2.654;2023-04-25T22:48:06;18.44;81.31
74661;SHT31;63191;39.566;2.654;2023-04-25T22:50:42;18.43;81.08
74661;SHT31;63191;39.566;2.654;2023-04-25T22:53:39;18.43;80.87
74661;SHT31;63191;39.566;2.654;2023-04-25T22:56:51;18.41;80.68
74661;SHT31;63191;39.566;2.654;2023-04-25T23:01:59;18.36;80.46
74661;SHT31;63191;39.566;2.654;2023-04-25T23:10:16;18.32;80.24
74661;SHT31;63191;39.566;2.654;2023-04-25T23:34:50;18.31;80.33
